createdAt,value
2023-02-01T00:00:52.003Z,19.85
2023-02-01T00:01:53.830Z,18.88
2023-02-01T00:02:55.781Z,18.23
2023-02-01T00:03:57.711Z,18.05
2023-02-01T00:04:59.819Z,18.25
2023-02-01T00:06:02.291Z,18.98
2023-02-01T00:07:04.377Z,18.75
2023-02-01T00:08:06.648Z,18.85
2023-02-01T00:09:09.074Z,17.92
2023-02-01T00:10:11.665Z,17.15
2023-02-01T00:11:14.591Z,17.30
2023-02-01T00:12:16.558Z,19.20
2023-02-01T00:13:18.446Z,17.27
2023-02-01T00:14:20.604Z,18.55
2023-02-01T00:15:24.294Z,18.75
2023-02-01T00:16:30.086Z,16.65
2023-02-01T00:17:32.129Z,19.13
2023-02-01T00:18:34.383Z,18.05
2023-02-01T00:19:36.343Z,18.73
2023-02-01T00:20:38.410Z,17.20
2023-02-01T00:21:40.505Z,19.45
2023-02-01T00:22:42.474Z,18.15
2023-02-01T00:23:44.798Z,17.48
2023-02-01T00:24:46.729Z,17.88
2023-02-01T00:25:48.771Z,16.92
2023-02-01T00:26:51.256Z,16.40
2023-02-01T00:27:53.345Z,18.23
2023-02-01T00:28:55.372Z,19.50
2023-02-01T00:29:57.388Z,19.40
2023-02-01T00:31:04.093Z,17.40
2023-02-01T00:32:06.360Z,17.10
2023-02-01T00:33:08.344Z,18.55
2023-02-01T00:34:13.916Z,17.92
2023-02-01T00:35:16.002Z,17.42
2023-02-01T00:36:18.442Z,17.88
2023-02-01T00:37:20.422Z,19.10
2023-02-01T00:38:22.491Z,16.10
2023-02-01T00:39:24.437Z,17.08
2023-02-01T00:40:26.402Z,16.63
2023-02-01T00:41:28.474Z,15.25
2023-02-01T00:42:30.677Z,16.35
2023-02-01T00:43:34.105Z,16.35
2023-02-01T00:44:37.007Z,18.08
2023-02-01T00:45:39.435Z,19.02
2023-02-01T00:46:41.562Z,18.23
2023-02-01T00:47:43.697Z,17.40
2023-02-01T00:48:45.780Z,18.58
2023-02-01T00:49:48.097Z,16.75
2023-02-01T00:50:50.262Z,16.42
2023-02-01T00:51:52.627Z,18.95
2023-02-01T00:52:54.585Z,15.82
2023-02-01T00:53:56.786Z,18.77
2023-02-01T00:54:58.849Z,17.17
2023-02-01T00:56:01.315Z,18.63
2023-02-01T00:57:03.279Z,15.65
2023-02-01T00:58:07.055Z,16.50
2023-02-01T00:59:13.223Z,18.60
2023-02-01T01:00:16.193Z,19.65
2023-02-01T01:01:24.296Z,18.75
2023-02-01T01:02:27.517Z,16.73
2023-02-01T01:03:30.694Z,17.65
2023-02-01T01:04:32.622Z,17.67
2023-02-01T01:05:34.540Z,16.45
2023-02-01T01:06:36.668Z,17.65
2023-02-01T01:07:38.633Z,18.10
2023-02-01T01:08:42.015Z,19.02
2023-02-01T01:09:44.088Z,20.13
2023-02-01T01:10:46.034Z,16.95
2023-02-01T01:11:48.017Z,18.10
2023-02-01T01:12:49.967Z,17.98
2023-02-01T01:13:54.379Z,17.35
2023-02-01T01:16:17.151Z,17.48
2023-02-01T01:17:19.106Z,16.40
2023-02-01T01:18:21.007Z,16.85
2023-02-01T01:19:23.036Z,18.13
2023-02-01T01:20:24.966Z,15.77
2023-02-01T01:21:27.535Z,17.17
2023-02-01T01:22:29.324Z,18.10
2023-02-01T01:23:31.139Z,16.30
2023-02-01T01:24:33.106Z,17.08
2023-02-01T01:25:41.527Z,16.58
2023-02-01T01:26:43.395Z,18.05
2023-02-01T01:27:45.292Z,17.67
2023-02-01T01:28:47.493Z,17.23
2023-02-01T01:29:49.553Z,15.88
2023-02-01T01:30:51.562Z,17.10
2023-02-01T01:31:53.632Z,19.15
2023-02-01T01:32:55.624Z,16.58
2023-02-01T01:34:00.222Z,17.00
2023-02-01T01:35:02.006Z,18.77
2023-02-01T01:36:12.991Z,16.02
2023-02-01T01:37:14.783Z,18.08
2023-02-01T01:38:16.739Z,16.52
2023-02-01T01:39:18.589Z,18.58
2023-02-01T01:40:20.744Z,17.17
2023-02-01T01:41:30.167Z,18.52
2023-02-01T01:42:32.018Z,15.90
2023-02-01T01:43:52.242Z,13.82
2023-02-01T01:45:18.015Z,14.88
2023-02-01T01:46:25.669Z,17.17
2023-02-01T01:47:50.215Z,16.90
2023-02-01T01:49:02.986Z,16.73
2023-02-01T01:50:08.235Z,16.48
2023-02-01T01:51:14.175Z,14.60
2023-02-01T01:52:16.212Z,16.77
2023-02-01T01:53:25.207Z,14.82
2023-02-01T01:54:38.625Z,17.13
2023-02-01T01:55:44.529Z,15.55
2023-02-01T01:56:51.732Z,14.48
2023-02-01T01:58:06.625Z,14.32
2023-02-01T01:59:10.006Z,15.93
2023-02-01T02:00:15.567Z,14.77
2023-02-01T02:01:17.899Z,16.42
2023-02-01T02:02:19.937Z,14.82
2023-02-01T02:03:26.788Z,15.57
2023-02-01T02:04:28.987Z,13.82
2023-02-01T02:05:31.684Z,15.52
2023-02-01T02:07:00.871Z,14.70
2023-02-01T02:08:03.052Z,14.38
2023-02-01T02:09:06.985Z,16.83
2023-02-01T02:10:14.413Z,13.95
2023-02-01T02:11:18.458Z,14.35
2023-02-01T02:12:20.519Z,15.25
2023-02-01T02:13:22.801Z,14.65
2023-02-01T02:14:26.012Z,13.13
2023-02-01T02:15:28.116Z,13.65
2023-02-01T02:16:49.349Z,12.60
2023-02-01T02:17:56.924Z,14.73
2023-02-01T02:19:16.918Z,14.93
2023-02-01T02:21:12.983Z,13.38
2023-02-01T02:22:40.943Z,14.45
2023-02-01T02:23:48.615Z,11.57
2023-02-01T02:25:17.577Z,14.27
2023-02-01T02:26:58.004Z,14.43
2023-02-01T02:28:33.849Z,13.35
2023-02-01T02:29:38.535Z,14.70
2023-02-01T02:30:52.513Z,14.02
2023-02-01T02:32:17.937Z,12.77
2023-02-01T02:33:37.807Z,15.45
2023-02-01T02:34:50.657Z,14.85
2023-02-01T02:36:08.559Z,13.65
2023-02-01T02:37:25.533Z,14.25
2023-02-01T02:38:36.151Z,14.48
2023-02-01T02:40:07.876Z,14.57
2023-02-01T02:41:40.309Z,12.25
2023-02-01T02:43:06.647Z,14.15
2023-02-01T02:44:41.385Z,12.32
2023-02-01T02:46:11.947Z,12.82
2023-02-01T02:47:49.447Z,11.45
2023-02-01T02:49:00.983Z,12.52
2023-02-01T02:50:31.781Z,13.50
2023-02-01T02:52:13.659Z,13.00
2023-02-01T02:53:38.545Z,12.77
2023-02-01T02:54:53.114Z,12.85
2023-02-01T02:56:15.082Z,12.85
2023-02-01T02:57:44.678Z,15.25
2023-02-01T03:00:32.054Z,13.07
2023-02-01T03:01:53.497Z,12.57
2023-02-01T03:03:14.757Z,13.95
2023-02-01T03:04:18.751Z,12.43
2023-02-01T03:05:22.001Z,13.60
2023-02-01T03:06:25.449Z,13.52
2023-02-01T03:07:45.922Z,14.57
2023-02-01T03:08:48.429Z,15.18
2023-02-01T03:09:50.908Z,13.88
2023-02-01T03:11:01.113Z,13.48
2023-02-01T03:12:27.146Z,13.70
2023-02-01T03:13:28.866Z,13.13
2023-02-01T03:14:36.134Z,12.50
2023-02-01T03:15:45.005Z,11.75
2023-02-01T03:16:58.631Z,13.63
2023-02-01T03:18:03.040Z,13.32
2023-02-01T03:20:14.594Z,11.63
2023-02-01T03:21:25.631Z,12.65
2023-02-01T03:22:32.854Z,11.93
2023-02-01T03:23:39.463Z,10.45
2023-02-01T03:24:54.771Z,12.27
2023-02-01T03:26:00.772Z,11.38
2023-02-01T03:27:18.785Z,11.77
2023-02-01T03:28:23.983Z,12.60
2023-02-01T03:29:33.475Z,13.05
2023-02-01T03:30:43.168Z,12.80
2023-02-01T03:31:45.295Z,11.80
2023-02-01T03:33:00.614Z,12.52
2023-02-01T03:34:02.774Z,12.27
2023-02-01T03:35:05.670Z,11.38
2023-02-01T03:36:19.346Z,11.52
2023-02-01T03:37:28.116Z,11.63
2023-02-01T03:38:54.539Z,14.23
2023-02-01T03:40:06.222Z,12.82
2023-02-01T03:41:22.489Z,12.95
2023-02-01T03:42:46.236Z,11.75
2023-02-01T03:43:51.058Z,11.63
2023-02-01T03:45:31.265Z,13.27
2023-02-01T03:46:38.601Z,12.38
2023-02-01T03:47:48.890Z,12.18
2023-02-01T03:48:53.401Z,11.25
2023-02-01T03:50:00.392Z,12.43
2023-02-01T03:51:06.283Z,12.55
2023-02-01T03:52:12.787Z,12.13
2023-02-01T03:53:21.540Z,12.60
2023-02-01T03:54:24.662Z,12.90
2023-02-01T03:55:29.337Z,13.02
2023-02-01T03:56:33.754Z,12.85
2023-02-01T03:57:40.793Z,10.88
2023-02-01T03:58:42.741Z,12.27
2023-02-01T03:59:46.735Z,14.15
2023-02-01T04:00:57.780Z,12.98
2023-02-01T04:01:59.942Z,11.27
2023-02-01T04:03:03.862Z,12.32
2023-02-01T04:04:05.989Z,12.48
2023-02-01T04:05:08.239Z,11.25
2023-02-01T04:06:10.247Z,14.05
2023-02-01T04:07:12.189Z,12.20
2023-02-01T04:08:14.077Z,12.85
2023-02-01T04:09:16.231Z,12.65
2023-02-01T04:10:19.810Z,12.60
2023-02-01T04:11:21.840Z,12.13
2023-02-01T04:12:23.753Z,11.35
2023-02-01T04:13:25.690Z,10.90
2023-02-01T04:14:27.624Z,12.32
2023-02-01T04:15:29.553Z,13.65
2023-02-01T04:16:33.275Z,12.18
2023-02-01T04:17:35.573Z,11.52
2023-02-01T04:18:37.514Z,12.13
2023-02-01T04:19:39.482Z,12.00
2023-02-01T04:20:41.434Z,12.40
2023-02-01T04:21:43.376Z,11.63
2023-02-01T04:22:45.553Z,13.13
2023-02-01T04:23:47.489Z,12.27
2023-02-01T04:24:49.494Z,12.15
2023-02-01T04:25:51.637Z,13.02
2023-02-01T04:26:53.641Z,12.35
2023-02-01T04:27:55.584Z,13.95
2023-02-01T04:28:57.419Z,12.07
2023-02-01T04:29:59.551Z,11.70
2023-02-01T04:31:01.556Z,12.13
2023-02-01T04:32:03.606Z,12.52
2023-02-01T04:33:08.670Z,13.27
2023-02-01T04:34:10.651Z,11.95
2023-02-01T04:35:12.886Z,11.80
2023-02-01T04:36:14.723Z,11.52
2023-02-01T04:37:16.621Z,12.48
2023-02-01T04:38:18.555Z,11.55
2023-02-01T04:39:20.345Z,12.02
2023-02-01T04:40:22.811Z,11.98
2023-02-01T04:41:24.824Z,10.45
2023-02-01T04:42:26.962Z,11.25
2023-02-01T04:43:28.981Z,11.98
2023-02-01T04:44:31.170Z,10.98
2023-02-01T04:45:32.997Z,11.85
2023-02-01T04:46:35.021Z,11.00
2023-02-01T04:47:36.966Z,11.07
2023-02-01T04:48:38.833Z,11.85
2023-02-01T04:49:40.757Z,12.75
2023-02-01T04:50:42.659Z,11.30
2023-02-01T04:51:44.861Z,10.77
2023-02-01T04:52:46.712Z,11.50
2023-02-01T04:53:48.681Z,11.15
2023-02-01T04:54:50.653Z,11.40
2023-02-01T04:55:52.541Z,11.20
2023-02-01T04:56:54.327Z,11.05
2023-02-01T04:57:56.464Z,11.05
2023-02-01T04:58:58.450Z,11.50
2023-02-01T05:00:00.338Z,11.05
2023-02-01T05:01:06.655Z,10.90
2023-02-01T05:02:08.589Z,11.18
2023-02-01T05:03:10.418Z,11.18
2023-02-01T05:04:12.275Z,12.65
2023-02-01T05:05:14.427Z,11.90
2023-02-01T05:06:16.356Z,12.27
2023-02-01T05:07:18.238Z,10.32
2023-02-01T05:08:20.260Z,10.93
2023-02-01T05:09:22.929Z,12.05
2023-02-01T05:10:25.171Z,11.32
2023-02-01T05:11:46.051Z,11.07
2023-02-01T05:13:06.349Z,12.18
2023-02-01T05:14:08.387Z,10.07
2023-02-01T05:15:10.327Z,10.90
2023-02-01T05:16:12.251Z,9.80
2023-02-01T05:17:14.048Z,11.80
2023-02-01T05:18:15.914Z,11.23
2023-02-01T05:19:17.832Z,12.93
2023-02-01T05:20:19.857Z,11.27
2023-02-01T05:21:21.864Z,10.95
2023-02-01T05:22:24.217Z,11.13
2023-02-01T05:23:25.991Z,12.27
2023-02-01T05:24:28.169Z,11.75
2023-02-01T05:25:30.138Z,11.40
2023-02-01T05:26:32.652Z,11.35
2023-02-01T05:27:34.881Z,11.65
2023-02-01T05:28:36.717Z,11.32
2023-02-01T05:29:38.532Z,11.52
2023-02-01T05:30:42.253Z,11.43
2023-02-01T05:31:47.257Z,10.35
2023-02-01T05:32:53.710Z,11.30
2023-02-01T05:33:55.867Z,10.80
2023-02-01T05:34:57.664Z,11.23
2023-02-01T05:35:59.472Z,11.10
2023-02-01T05:37:01.275Z,12.23
2023-02-01T05:38:03.250Z,12.60
2023-02-01T05:39:05.252Z,11.90
2023-02-01T05:40:07.790Z,11.45
2023-02-01T05:41:10.069Z,10.85
2023-02-01T05:42:12.130Z,11.35
2023-02-01T05:43:13.924Z,11.05
2023-02-01T05:44:15.904Z,11.82
2023-02-01T05:45:17.838Z,10.98
2023-02-01T05:46:19.722Z,12.18
2023-02-01T05:47:22.037Z,11.38
2023-02-01T05:48:23.978Z,10.45
2023-02-01T05:49:25.979Z,9.48
2023-02-01T05:50:27.884Z,11.57
2023-02-01T05:51:29.696Z,10.82
2023-02-01T05:52:31.874Z,11.18
2023-02-01T05:53:33.653Z,12.00
2023-02-01T05:54:35.813Z,10.77
2023-02-01T05:55:38.177Z,12.18
2023-02-01T05:56:41.895Z,11.32
2023-02-01T05:57:43.730Z,10.75
2023-02-01T05:58:45.652Z,11.98
2023-02-01T05:59:48.703Z,10.43
2023-02-01T06:00:50.525Z,12.52
2023-02-01T06:01:52.371Z,11.93
2023-02-01T06:02:54.503Z,11.45
2023-02-01T06:03:56.445Z,12.10
2023-02-01T06:04:58.338Z,11.23
2023-02-01T06:06:01.503Z,11.63
2023-02-01T06:07:03.995Z,11.32
2023-02-01T06:08:05.818Z,10.52
2023-02-01T06:09:07.593Z,9.70
2023-02-01T06:10:10.648Z,12.82
2023-02-01T06:11:17.427Z,10.85
2023-02-01T06:12:25.238Z,10.07
2023-02-01T06:13:27.396Z,10.27
2023-02-01T06:14:29.410Z,10.68
2023-02-01T06:15:31.796Z,10.23
2023-02-01T06:16:34.116Z,9.88
2023-02-01T06:17:36.030Z,9.65
2023-02-01T06:18:38.881Z,10.15
2023-02-01T06:19:41.647Z,10.73
2023-02-01T06:20:43.530Z,10.68
2023-02-01T06:21:45.546Z,9.90
2023-02-01T06:22:47.689Z,10.48
2023-02-01T06:23:49.525Z,10.68
2023-02-01T06:24:51.493Z,9.10
2023-02-01T06:26:05.496Z,9.80
2023-02-01T06:27:07.954Z,11.55
2023-02-01T06:28:09.856Z,8.73
2023-02-01T06:29:12.099Z,8.43
2023-02-01T06:30:17.140Z,10.77
2023-02-01T06:31:19.083Z,10.15
2023-02-01T06:32:21.049Z,11.77
2023-02-01T06:33:22.968Z,9.95
2023-02-01T06:34:25.002Z,10.25
2023-02-01T06:35:27.787Z,9.02
2023-02-01T06:36:30.104Z,8.80
2023-02-01T06:37:31.961Z,9.80
2023-02-01T06:38:35.874Z,9.68
2023-02-01T06:39:37.785Z,10.05
2023-02-01T06:40:40.411Z,9.25
2023-02-01T06:41:42.967Z,9.18
2023-02-01T06:42:44.968Z,8.77
2023-02-01T06:43:47.304Z,11.10
2023-02-01T06:44:49.109Z,10.35
2023-02-01T06:45:51.870Z,9.20
2023-02-01T06:46:53.942Z,10.43
2023-02-01T06:47:55.791Z,10.00
2023-02-01T06:48:57.672Z,7.20
2023-02-01T06:49:59.515Z,10.05
2023-02-01T06:51:01.519Z,9.98
2023-02-01T06:52:03.472Z,9.70
2023-02-01T06:53:05.455Z,9.98
2023-02-01T06:54:07.216Z,9.05
2023-02-01T06:55:09.425Z,8.95
2023-02-01T06:56:11.317Z,9.55
2023-02-01T06:57:13.367Z,8.48
2023-02-01T06:58:15.155Z,9.82
2023-02-01T06:59:17.543Z,9.27
2023-02-01T07:00:19.818Z,9.15
2023-02-01T07:01:21.577Z,10.40
2023-02-01T07:02:23.562Z,9.82
2023-02-01T07:03:25.775Z,9.10
2023-02-01T07:04:27.710Z,8.93
2023-02-01T07:05:29.517Z,9.63
2023-02-01T07:06:31.380Z,9.23
2023-02-01T07:07:33.347Z,10.02
2023-02-01T07:08:38.608Z,9.10
2023-02-01T07:09:40.546Z,9.98
2023-02-01T07:10:42.807Z,9.13
2023-02-01T07:11:45.138Z,10.52
2023-02-01T07:12:47.067Z,9.15
2023-02-01T07:13:49.565Z,8.30
2023-02-01T07:14:51.594Z,11.02
2023-02-01T07:15:53.482Z,8.70
2023-02-01T07:16:55.296Z,9.40
2023-02-01T07:17:57.923Z,10.68
2023-02-01T07:19:00.794Z,9.65
2023-02-01T07:20:02.843Z,10.02
2023-02-01T07:21:05.841Z,9.45
2023-02-01T07:22:07.807Z,8.88
2023-02-01T07:23:11.836Z,10.00
2023-02-01T07:24:15.743Z,10.35
2023-02-01T07:25:17.564Z,9.23
2023-02-01T07:26:19.424Z,7.43
2023-02-01T07:27:22.091Z,9.52
2023-02-01T07:28:24.449Z,8.55
2023-02-01T07:29:26.506Z,8.25
2023-02-01T07:30:31.212Z,8.82
2023-02-01T07:31:33.175Z,9.60
2023-02-01T07:32:35.087Z,8.27
2023-02-01T07:33:37.664Z,9.68
2023-02-01T07:34:39.650Z,9.13
2023-02-01T07:35:41.483Z,10.02
2023-02-01T07:36:43.690Z,9.32
2023-02-01T07:37:45.523Z,8.55
2023-02-01T07:38:53.684Z,7.18
2023-02-01T07:39:57.356Z,8.35
2023-02-01T07:41:00.866Z,9.48
2023-02-01T07:42:02.953Z,8.93
2023-02-01T07:43:07.240Z,9.90
2023-02-01T07:44:09.193Z,9.68
2023-02-01T07:45:21.049Z,8.15
2023-02-01T07:46:23.736Z,9.98
2023-02-01T07:47:25.533Z,8.77
2023-02-01T07:48:28.393Z,9.57
2023-02-01T07:49:30.444Z,8.63
2023-02-01T07:50:32.532Z,9.68
2023-02-01T07:51:34.404Z,9.35
2023-02-01T07:52:36.229Z,8.30
2023-02-01T07:53:38.544Z,9.10
2023-02-01T07:54:40.496Z,9.35
2023-02-01T07:55:42.394Z,8.70
2023-02-01T07:56:44.224Z,8.80
2023-02-01T07:57:46.559Z,8.25
2023-02-01T07:58:52.486Z,9.50
2023-02-01T08:00:12.845Z,8.35
2023-02-01T08:01:25.339Z,8.88
2023-02-01T08:02:27.445Z,8.68
2023-02-01T08:03:29.714Z,9.05
2023-02-01T08:04:31.609Z,8.57
2023-02-01T08:05:33.680Z,10.00
2023-02-01T08:06:35.718Z,7.70
2023-02-01T08:07:37.764Z,9.07
2023-02-01T08:08:39.565Z,7.68
2023-02-01T08:09:41.461Z,8.45
2023-02-01T08:10:43.507Z,7.68
2023-02-01T08:11:45.363Z,6.93
2023-02-01T08:12:50.035Z,8.07
2023-02-01T08:13:52.840Z,8.70
2023-02-01T08:14:55.002Z,7.38
2023-02-01T08:16:01.333Z,8.60
2023-02-01T08:17:03.136Z,9.38
2023-02-01T08:18:05.485Z,8.68
2023-02-01T08:19:07.456Z,8.48
2023-02-01T08:20:10.237Z,9.07
2023-02-01T08:21:17.531Z,7.22
2023-02-01T08:22:19.343Z,10.32
2023-02-01T08:23:21.963Z,7.93
2023-02-01T08:24:23.750Z,9.15
2023-02-01T08:25:25.647Z,8.35
2023-02-01T08:26:27.694Z,9.20
2023-02-01T08:27:29.581Z,8.85
2023-02-01T08:28:31.600Z,9.70
2023-02-01T08:29:33.858Z,8.40
2023-02-01T08:30:38.344Z,8.70
2023-02-01T08:31:43.190Z,7.65
2023-02-01T08:32:45.045Z,8.15
2023-02-01T08:33:51.259Z,8.25
2023-02-01T08:34:53.196Z,8.00
2023-02-01T08:35:54.982Z,8.43
2023-02-01T08:36:59.858Z,7.93
2023-02-01T08:38:01.789Z,7.95
2023-02-01T08:39:06.867Z,8.55
2023-02-01T08:40:09.691Z,8.52
2023-02-01T08:41:15.061Z,8.63
2023-02-01T08:42:35.658Z,8.63
2023-02-01T08:43:37.916Z,9.57
2023-02-01T08:44:39.932Z,8.10
2023-02-01T08:45:42.118Z,8.07
2023-02-01T08:46:43.965Z,8.02
2023-02-01T08:47:45.860Z,8.02
2023-02-01T08:48:48.456Z,8.18
2023-02-01T08:49:50.396Z,7.65
2023-02-01T08:50:52.331Z,8.63
2023-02-01T08:51:58.252Z,8.20
2023-02-01T08:53:00.398Z,8.20
2023-02-01T08:54:02.450Z,8.60
2023-02-01T08:55:04.622Z,8.00
2023-02-01T08:56:07.212Z,9.23
2023-02-01T08:57:10.711Z,7.88
2023-02-01T08:58:12.542Z,9.48
2023-02-01T08:59:14.449Z,8.02
2023-02-01T09:00:18.180Z,8.00
2023-02-01T09:01:20.132Z,8.77
2023-02-01T09:02:22.177Z,8.00
2023-02-01T09:03:24.210Z,8.18
2023-02-01T09:04:26.103Z,7.53
2023-02-01T09:05:40.689Z,8.23
2023-02-01T09:06:49.468Z,8.15
2023-02-01T09:07:51.391Z,7.88
2023-02-01T09:08:53.301Z,7.05
2023-02-01T09:09:57.458Z,8.30
2023-02-01T09:11:03.832Z,7.03
2023-02-01T09:12:06.221Z,10.77
2023-02-01T09:13:08.977Z,8.40
2023-02-01T09:14:10.768Z,7.68
2023-02-01T09:15:12.625Z,9.30
2023-02-01T09:16:14.708Z,8.57
2023-02-01T09:17:16.938Z,8.45
2023-02-01T09:18:19.066Z,8.00
2023-02-01T09:19:26.397Z,8.20
2023-02-01T09:20:28.793Z,9.02
2023-02-01T09:21:30.996Z,7.38
2023-02-01T09:22:32.767Z,8.70
2023-02-01T09:23:35.648Z,7.97
2023-02-01T09:24:37.507Z,8.10
2023-02-01T09:25:39.783Z,7.10
2023-02-01T09:26:41.648Z,7.93
2023-02-01T09:27:43.480Z,7.05
2023-02-01T09:28:45.335Z,7.45
2023-02-01T09:29:51.076Z,6.80
2023-02-01T09:31:00.131Z,6.15
2023-02-01T09:32:04.278Z,7.72
2023-02-01T09:33:06.433Z,7.80
2023-02-01T09:34:08.722Z,6.60
2023-02-01T09:35:10.700Z,8.73
2023-02-01T09:36:12.664Z,8.65
2023-02-01T09:37:14.717Z,8.18
2023-02-01T09:38:16.621Z,8.60
2023-02-01T09:39:18.485Z,8.43
2023-02-01T09:40:21.715Z,7.55
2023-02-01T09:41:41.671Z,8.85
2023-02-01T09:42:50.347Z,7.13
2023-02-01T09:44:00.965Z,9.55
2023-02-01T09:45:25.050Z,8.82
2023-02-01T09:46:29.735Z,7.15
2023-02-01T09:47:32.934Z,7.25
2023-02-01T09:48:40.570Z,6.32
2023-02-01T09:49:56.046Z,7.22
2023-02-01T09:51:00.347Z,7.18
2023-02-01T09:53:39.621Z,7.53
2023-02-01T09:54:51.822Z,7.28
2023-02-01T09:55:59.356Z,6.55
2023-02-01T09:57:10.899Z,7.80
2023-02-01T09:58:41.634Z,7.03
2023-02-01T09:59:59.364Z,7.00
2023-02-01T10:01:03.749Z,8.18
2023-02-01T10:02:13.908Z,8.27
2023-02-01T10:03:15.828Z,9.25
2023-02-01T10:04:18.888Z,6.63
2023-02-01T10:05:50.602Z,7.97
2023-02-01T10:07:07.158Z,7.13
2023-02-01T10:08:34.313Z,7.80
2023-02-01T10:09:45.064Z,7.43
2023-02-01T10:10:51.059Z,7.45
2023-02-01T10:12:32.378Z,8.50
2023-02-01T10:13:52.999Z,7.97
2023-02-01T10:15:33.342Z,8.68
2023-02-01T10:17:05.064Z,6.60
2023-02-01T10:18:16.132Z,7.60
2023-02-01T10:19:47.168Z,8.25
2023-02-01T10:21:06.880Z,6.53
2023-02-01T10:22:48.531Z,7.85
2023-02-01T10:24:36.032Z,7.53
2023-02-01T10:25:54.109Z,7.30
2023-02-01T10:27:02.801Z,8.55
2023-02-01T10:28:05.307Z,8.25
2023-02-01T10:29:18.159Z,8.68
2023-02-01T10:30:22.162Z,8.05
2023-02-01T10:32:35.538Z,7.35
2023-02-01T10:33:48.697Z,7.32
2023-02-01T10:34:56.738Z,7.95
2023-02-01T10:36:18.247Z,5.80
2023-02-01T10:37:36.239Z,6.93
2023-02-01T10:38:38.078Z,6.75
2023-02-01T10:39:40.063Z,7.85
2023-02-01T10:40:42.444Z,6.72
2023-02-01T10:41:44.433Z,6.93
2023-02-01T10:42:47.799Z,6.20
2023-02-01T10:43:54.472Z,6.97
2023-02-01T10:45:03.299Z,6.35
2023-02-01T10:46:06.099Z,8.27
2023-02-01T10:47:11.687Z,8.13
2023-02-01T10:48:14.170Z,6.43
2023-02-01T10:49:25.589Z,6.68
2023-02-01T10:50:54.882Z,6.43
2023-02-01T10:52:18.247Z,6.43
2023-02-01T10:53:46.424Z,6.57
2023-02-01T10:54:48.406Z,6.05
2023-02-01T10:55:52.464Z,7.18
2023-02-01T10:56:54.693Z,7.38
2023-02-01T10:58:05.206Z,5.05
2023-02-01T10:59:15.777Z,5.88
2023-02-01T11:01:40.739Z,5.47
2023-02-01T11:02:42.679Z,6.15
2023-02-01T11:04:00.966Z,6.43
2023-02-01T11:05:13.379Z,4.78
2023-02-01T11:06:20.239Z,7.07
2023-02-01T11:07:26.051Z,6.65
2023-02-01T11:08:28.042Z,6.93
2023-02-01T11:09:29.984Z,6.32
2023-02-01T11:10:43.643Z,6.68
2023-02-01T11:11:48.301Z,6.68
2023-02-01T11:12:55.175Z,6.90
2023-02-01T11:14:17.157Z,6.32
2023-02-01T11:15:24.405Z,6.38
2023-02-01T11:16:34.342Z,6.70
2023-02-01T11:17:43.182Z,7.28
2023-02-01T11:18:45.038Z,7.65
2023-02-01T11:19:52.682Z,7.45
2023-02-01T11:20:56.316Z,6.30
2023-02-01T11:22:00.896Z,5.13
2023-02-01T11:23:03.666Z,7.45
2023-02-01T11:24:07.898Z,5.72
2023-02-01T11:26:24.744Z,6.38
2023-02-01T11:27:28.188Z,5.05
2023-02-01T11:28:36.520Z,17.25
2023-02-01T11:29:43.002Z,6.35
2023-02-01T11:30:48.381Z,6.32
2023-02-01T11:31:51.705Z,5.78
2023-02-01T11:32:53.830Z,7.53
2023-02-01T11:34:21.345Z,6.68
2023-02-01T11:35:23.428Z,6.97
2023-02-01T11:36:31.065Z,7.97
2023-02-01T11:37:38.541Z,6.55
2023-02-01T11:38:54.447Z,5.65
2023-02-01T11:39:59.459Z,7.03
2023-02-01T11:41:22.935Z,6.35
2023-02-01T11:42:26.700Z,6.25
2023-02-01T11:43:29.971Z,6.40
2023-02-01T11:44:40.241Z,6.35
2023-02-01T11:45:42.214Z,6.28
2023-02-01T11:46:44.142Z,4.93
2023-02-01T11:47:47.264Z,6.47
2023-02-01T11:48:49.024Z,6.00
2023-02-01T11:50:02.679Z,6.93
2023-02-01T11:51:41.958Z,6.70
2023-02-01T11:53:16.098Z,7.07
2023-02-01T11:54:50.592Z,6.68
2023-02-01T11:56:04.205Z,6.45
2023-02-01T11:57:25.752Z,6.50
2023-02-01T11:58:42.746Z,6.07
2023-02-01T12:01:08.835Z,5.95
2023-02-01T12:02:31.931Z,6.65
2023-02-01T12:03:36.803Z,6.78
2023-02-01T12:05:05.754Z,7.50
2023-02-01T12:06:32.558Z,5.40
2023-02-01T12:07:43.042Z,8.13
2023-02-01T12:09:16.479Z,7.43
2023-02-01T12:10:18.352Z,5.90
2023-02-01T12:11:23.240Z,6.93
2023-02-01T12:13:05.875Z,6.50
2023-02-01T12:14:35.336Z,6.70
2023-02-01T12:16:01.895Z,6.10
2023-02-01T12:17:19.878Z,6.40
2023-02-01T12:18:49.210Z,6.15
2023-02-01T12:20:18.503Z,6.93
2023-02-01T12:21:28.221Z,6.72
2023-02-01T12:22:39.436Z,5.90
2023-02-01T12:23:56.486Z,6.38
2023-02-01T12:26:59.699Z,4.32
2023-02-01T12:28:07.707Z,7.55
2023-02-01T12:29:22.100Z,5.80
2023-02-01T12:30:36.620Z,6.85
2023-02-01T12:31:56.529Z,7.70
2023-02-01T12:33:28.853Z,6.47
2023-02-01T12:34:30.569Z,7.43
2023-02-01T12:35:46.003Z,6.93
2023-02-01T12:36:59.438Z,8.15
2023-02-01T12:38:35.811Z,7.18
2023-02-01T12:39:50.903Z,6.97
2023-02-01T12:40:55.660Z,6.60
2023-02-01T12:42:17.142Z,6.55
2023-02-01T12:43:34.335Z,7.63
2023-02-01T12:44:53.043Z,6.38
2023-02-01T12:46:02.403Z,7.47
2023-02-01T12:47:42.842Z,6.72
2023-02-01T12:49:33.855Z,6.05
2023-02-01T12:51:00.479Z,7.32
2023-02-01T12:52:10.693Z,7.22
2023-02-01T12:53:21.770Z,7.80
2023-02-01T12:54:48.697Z,6.22
2023-02-01T12:56:14.709Z,7.35
2023-02-01T12:57:24.655Z,6.72
2023-02-01T12:58:39.824Z,7.32
2023-02-01T12:59:50.224Z,7.72
2023-02-01T13:01:06.377Z,6.03
2023-02-01T13:02:14.183Z,5.88
2023-02-01T13:03:31.041Z,7.57
2023-02-01T13:04:43.987Z,6.35
2023-02-01T13:06:08.185Z,7.47
2023-02-01T13:07:22.321Z,7.18
2023-02-01T13:08:29.755Z,7.32
2023-02-01T13:09:44.718Z,6.45
2023-02-01T13:10:58.044Z,6.13
2023-02-01T13:12:08.576Z,7.65
2023-02-01T13:13:40.032Z,7.03
2023-02-01T13:14:53.597Z,7.22
2023-02-01T13:16:04.025Z,7.18
2023-02-01T13:17:13.727Z,7.97
2023-02-01T13:18:21.727Z,7.55
2023-02-01T13:19:42.322Z,7.82
2023-02-01T13:21:00.179Z,8.75
2023-02-01T13:22:13.032Z,8.02
2023-02-01T13:23:31.506Z,8.10
2023-02-01T13:24:57.297Z,6.55
2023-02-01T13:25:59.856Z,7.95
2023-02-01T13:27:02.715Z,8.18
2023-02-01T13:28:15.331Z,5.85
2023-02-01T13:29:17.989Z,9.30
2023-02-01T13:30:31.630Z,8.02
2023-02-01T13:31:57.085Z,8.18
2023-02-01T13:33:54.061Z,7.00
2023-02-01T13:35:02.440Z,7.60
2023-02-01T13:36:53.805Z,9.55
2023-02-01T13:38:26.585Z,7.80
2023-02-01T13:40:06.677Z,6.93
2023-02-01T13:41:25.584Z,7.80
2023-02-01T13:42:32.219Z,6.90
2023-02-01T13:43:34.933Z,8.70
2023-02-01T13:44:43.645Z,8.35
2023-02-01T13:45:52.160Z,8.30
2023-02-01T13:46:59.411Z,8.20
2023-02-01T13:48:05.264Z,7.85
2023-02-01T13:49:07.141Z,7.97
2023-02-01T13:50:22.060Z,8.23
2023-02-01T13:51:43.317Z,7.95
2023-02-01T13:52:46.971Z,8.77
2023-02-01T13:53:50.290Z,7.45
2023-02-01T13:55:04.699Z,8.00
2023-02-01T13:56:25.278Z,7.10
2023-02-01T13:57:40.067Z,8.65
2023-02-01T13:58:44.496Z,7.63
2023-02-01T13:59:47.238Z,8.40
2023-02-01T14:00:52.510Z,9.10
2023-02-01T14:01:54.516Z,6.88
2023-02-01T14:03:02.277Z,7.90
2023-02-01T14:04:28.000Z,6.95
2023-02-01T14:05:30.421Z,5.82
2023-02-01T14:06:34.847Z,5.07
2023-02-01T14:08:42.063Z,10.00
2023-02-01T14:09:43.874Z,7.53
2023-02-01T14:10:45.959Z,7.55
2023-02-01T14:11:53.030Z,8.10
2023-02-01T14:13:05.481Z,8.73
2023-02-01T14:14:27.238Z,6.78
2023-02-01T14:15:29.700Z,8.15
2023-02-01T14:16:31.548Z,5.90
2023-02-01T14:17:35.764Z,8.10
2023-02-01T14:18:38.425Z,7.68
2023-02-01T14:19:40.428Z,7.68
2023-02-01T14:20:47.239Z,8.57
2023-02-01T14:22:02.229Z,6.80
2023-02-01T14:23:05.583Z,6.53
2023-02-01T14:24:10.122Z,7.32
2023-02-01T14:25:18.715Z,7.75
2023-02-01T14:26:40.686Z,5.53
2023-02-01T14:27:42.667Z,7.63
2023-02-01T14:28:48.475Z,7.32
2023-02-01T14:30:00.728Z,6.43
2023-02-01T14:31:17.353Z,8.20
2023-02-01T14:32:22.665Z,6.35
2023-02-01T14:33:27.799Z,7.20
2023-02-01T14:34:44.479Z,6.70
2023-02-01T14:36:15.667Z,5.93
2023-02-01T14:37:22.019Z,7.80
2023-02-01T14:38:23.856Z,7.03
2023-02-01T14:39:32.097Z,5.68
2023-02-01T14:40:35.393Z,6.72
2023-02-01T14:41:37.406Z,5.65
2023-02-01T14:42:52.547Z,6.53
2023-02-01T14:44:03.359Z,5.93
2023-02-01T14:45:22.920Z,7.68
2023-02-01T14:47:02.631Z,6.97
2023-02-01T14:48:07.348Z,6.60
2023-02-01T14:49:10.944Z,8.05
2023-02-01T14:50:25.270Z,5.60
2023-02-01T14:51:28.066Z,6.75
2023-02-01T14:52:35.483Z,6.93
2023-02-01T14:53:38.681Z,6.35
2023-02-01T14:54:41.642Z,7.25
2023-02-01T14:56:07.798Z,6.75
2023-02-01T14:57:20.688Z,5.90
2023-02-01T14:58:31.567Z,6.05
2023-02-01T14:59:37.857Z,6.13
2023-02-01T15:01:14.093Z,7.32